Flight Track Log - Related Links

Times and Time Zones

All times are in EDT time to prevent confusion due to time zone crossing. See the JBU1295 flight status page for this flight to view local times or setup timezone preferences in your user account.

Time Position Orientation Groundspeed Altitude Reporting Facility
EDT Latitude Longitude Course Direction KTS MPH feet Rate Location/Type
Thu 08:47:40 PM 40.6450 -73.7750 329° Northwest  Level FlightAware ADS-B
Thu 08:49:06 PM 40.6460 -73.7750 360° North 11 Level FlightAware ADS-B
Thu 08:51:31 PM 40.6460 -73.7750 360° North 12 Level FlightAware ADS-B
Thu 08:56:00 PM 40.5088 -73.9745 217° Southwest  Level FlightAware Approximate
Thu 08:56:13 PM 40.6440 -73.7750 217° Southwest  Level FlightAware ADS-B
Thu 08:57:59 PM 40.6450 -73.7750 217° Southwest 21 Level FlightAware ADS-B
Thu 08:58:00 PM 40.5366 -73.9300 217° Southwest  Level FlightAware Approximate
Thu 09:05:18 PM 40.6360 -73.7890 298° West 96 110  Level FlightAware ADS-B
Thu 09:05:40 PM 40.6430 -73.8060 298° West 168 193 200 1,636 Climbing FlightAware ADS-B
Thu 09:06:02 PM 40.6520 -73.8250 302° West 167 192 1,200 2,600 Climbing FlightAware ADS-B
Thu 09:06:10 PM 40.6530 -73.8330 279° West 160 184 1,500 1,500 Climbing FlightAware ADS-B
Thu 09:06:18 PM 40.6520 -73.8400 259° West 160 184 1,600 750 Climbing FlightAware ADS-B
Thu 09:06:26 PM 40.6480 -73.8470 233° Southwest 166 191 1,700 828 Climbing FlightAware ADS-B
Thu 09:06:47 PM 40.6360 -73.8640 227° Southwest 198 228 2,000 909 Climbing FlightAware ADS-B
Thu 09:06:59 PM 40.6280 -73.8750 226° Southwest 220 253 2,200 1,455 Climbing FlightAware ADS-B
Thu 09:07:20 PM 40.6110 -73.8960 223° Southwest 244 281 2,800 2,432 Climbing FlightAware ADS-B
Thu 09:07:36 PM 40.5960 -73.9090 213° Southwest 245 282 3,700 3,429 Climbing FlightAware ADS-B
Thu 09:07:55 PM 40.5780 -73.9240 212° Southwest 245 282 4,800 3,188 Climbing FlightAware ADS-B
Thu 09:08:08 PM 40.5670 -73.9330 212° Southwest 247 284 5,400 3,091 Climbing FlightAware ADS-B
Thu 09:08:28 PM 40.5460 -73.9500 212° Southwest 249 287 6,500 3,512 Climbing FlightAware ADS-B
Thu 09:08:49 PM 40.5250 -73.9670 212° Southwest 243 280 7,800 3,366 Climbing FlightAware ADS-B
Thu 09:09:09 PM 40.5050 -73.9830 211° Southwest 244 281 8,800 2,914 Climbing FlightAware ADS-B
Thu 09:09:24 PM 40.4920 -73.9950 215° Southwest 247 284 9,500 2,308 Climbing FlightAware ADS-B
Thu 09:10:01 PM 40.4540 -74.0250 211° Southwest 271 312 10,800 1,655 Climbing FlightAware ADS-B
Thu 09:10:22 PM 40.4330 -74.0440 215° Southwest 290 334 11,100 621 Climbing FlightAware ADS-B
Thu 09:10:30 PM 40.4250 -74.0550 226° Southwest 288 331 11,100 900 Level FlightAware ADS-B
Thu 09:11:02 PM 40.4000 -74.1060 237° Southwest 313 360 11,700 1,629 Climbing FlightAware ADS-B
Thu 09:11:40 PM 40.3690 -74.1680 237° Southwest 327 376 13,000 2,197 Climbing FlightAware ADS-B
Thu 09:12:13 PM 40.3410 -74.2230 236° Southwest 331 381 14,300 2,327 Climbing FlightAware ADS-B
Thu 09:12:29 PM 40.3320 -74.2520 248° West 334 384 14,900 2,170 Climbing FlightAware ADS-B
Thu 09:13:00 PM 40.3210 -74.3140 257° West 338 389 16,000 2,087 Climbing FlightAware ADS-B
Thu 09:13:38 PM 40.3080 -74.3900 257° West 343 395 17,300 2,000 Climbing FlightAware ADS-B
Thu 09:14:12 PM 40.2960 -74.4600 257° West 347 399 18,400 2,136 Climbing FlightAware ADS-B
Thu 09:14:37 PM 40.2871 -74.5107 257° West 345 397 19,400 2,105 Climbing FlightAware ADS-B
Thu 09:15:09 PM 40.2755 -74.5762 257° West 346 398 20,400 1,859 Climbing FlightAware ADS-B
Thu 09:15:48 PM 40.2612 -74.6564 257° West 348 400 21,600 1,756 Climbing FlightAware ADS-B
Thu 09:16:31 PM 40.2458 -74.7430 257° West 350 403 22,800 1,519 Climbing FlightAware ADS-B
Thu 09:17:07 PM 40.2330 -74.8160 257° West 353 406 23,600 1,183 Climbing FlightAware ADS-B
Thu 09:17:42 PM 40.2190 -74.8910 256° West 360 414 24,200 1,114 Climbing FlightAware ADS-B
Thu 09:18:17 PM 40.2060 -74.9660 257° West 365 420 24,900 1,268 Climbing FlightAware ADS-B
Thu 09:18:53 PM 40.1920 -75.0440 257° West 367 422 25,700 1,315 Climbing FlightAware ADS-B
Thu 09:19:30 PM 40.1770 -75.1240 256° West 369 425 26,500 1,164 Climbing FlightAware ADS-B
Thu 09:20:00 PM 40.1650 -75.1900 257° West 376 433 27,000 985 Climbing FlightAware ADS-B
Thu 09:20:37 PM 40.1490 -75.2720 256° West 378 435 27,600 971 Climbing FlightAware ADS-B
Thu 09:21:08 PM 40.1300 -75.3370 249° West 381 438 28,100 1,222 Climbing FlightAware ADS-B
Thu 09:21:31 PM 40.1023 -75.4023 241° Southwest 381 438 28,700 1,406 Climbing FlightAware ADS-B
Thu 09:22:12 PM 40.0565 -75.4785 232° Southwest 380 437 29,600 1,034 Climbing FlightAware ADS-B
Thu 09:22:58 PM 40.0150 -75.5360 227° Southwest 378 435 30,200 1,102 Climbing FlightAware ADS-B
Thu 09:23:01 PM 39.9982 -75.5599 227° Southwest 379 436 30,500 1,455 Climbing FlightAware ADS-B
Thu 09:23:31 PM 39.9780 -75.5890 228° Southwest 372 428 31,000 1,459 Climbing FlightAware ADS-B
Thu 09:23:38 PM 39.9541 -75.6212 226° Southwest 371 427 31,400 973 Climbing FlightAware ADS-B
Thu 09:24:08 PM 39.9330 -75.6500 226° Southwest 372 428 31,600 941 Climbing FlightAware ADS-B
Thu 09:24:29 PM 39.8955 -75.7064 229° Southwest 368 423 32,200 1,114 Climbing FlightAware ADS-B
Thu 09:25:18 PM 39.8570 -75.7680 231° Southwest 364 419 32,900 786 Climbing FlightAware ADS-B
Thu 09:25:53 PM 39.8190 -75.8280 231° Southwest 366 421 33,300 800 Climbing FlightAware ADS-B
Thu 09:26:03 PM 39.8078 -75.8472 233° Southwest 366 421 33,500 977 Climbing FlightAware ADS-B (KSYR)
Thu 09:26:36 PM 39.7718 -75.9045 231° Southwest 360 414 34,000 441 Climbing FlightAware ADS-B (KSYR)
Thu 09:27:11 PM 39.7369 -75.9601 231° Southwest 356 410 34,000  Level FlightAware ADS-B (KSYR)
Thu 09:27:43 PM 39.7028 -76.0143 231° Southwest 362 417 34,000  Level FlightAware ADS-B (KSYR)
Thu 09:28:21 PM 39.6619 -76.0792 231° Southwest 365 420 34,000  Level FlightAware ADS-B (KSYR)
Thu 09:28:53 PM 39.6314 -76.1273 231° Southwest 365 420 34,000  Level FlightAware ADS-B (KSYR)
Thu 09:29:23 PM 39.5958 -76.1835 231° Southwest 363 418 34,000  Level FlightAware ADS-B (KSYR)
Thu 09:29:53 PM 39.5652 -76.2310 230° Southwest 363 418 34,000  Level FlightAware ADS-B (KSYR)
Thu 09:30:31 PM 39.5235 -76.2949 230° Southwest 364 419 34,000  Level FlightAware ADS-B (KSYR)
Thu 09:31:03 PM 39.4878 -76.3495 230° Southwest 365 420 34,000  Level FlightAware ADS-B (KSYR)
Thu 09:31:33 PM 39.4547 -76.4002 230° Southwest 365 420 34,000  Level FlightAware ADS-B (KSYR)
Thu 09:32:03 PM 39.4229 -76.4500 230° Southwest 365 420 34,000  Level FlightAware ADS-B (KSYR)
Thu 09:32:33 PM 39.3916 -76.4997 231° Southwest 365 420 34,000  Level FlightAware ADS-B (KSYR)
Thu 09:33:04 PM 39.3595 -76.5505 231° Southwest 364 419 34,000  Level FlightAware ADS-B (KSYR)
Thu 09:33:34 PM 39.3273 -76.6010 231° Southwest 363 418 34,000  Level FlightAware ADS-B (KSYR)
Thu 09:34:04 PM 39.2969 -76.6487 231° Southwest 362 417 34,000  Level FlightAware ADS-B (KSYR)
Thu 09:34:43 PM 39.2525 -76.7181 230° Southwest 360 414 34,000  Level FlightAware ADS-B (KSYR)
Thu 09:35:32 PM 39.2010 -76.7985 230° Southwest 357 411 34,000  Level FlightAware ADS-B (KSYR)
Thu 09:36:03 PM 39.1700 -76.8470 231° Southwest 356 410 34,000  Level FlightAware ADS-B
Thu 09:36:24 PM 39.1482 -76.8807 230° Southwest 356 410 34,000  Level FlightAware ADS-B (KSYR)
Thu 09:37:11 PM 39.0969 -76.9603 230° Southwest 355 409 34,000  Level FlightAware ADS-B (KSYR)
Thu 09:37:44 PM 39.0631 -77.0123 230° Southwest 358 412 34,000  Level FlightAware ADS-B (KSYR)
Thu 09:38:22 PM 39.0180 -77.0670 223° Southwest 363 418 34,000  Level FlightAware ADS-B
Thu 09:38:58 PM 38.9720 -77.1180 221° Southwest 360 414 34,000  Level FlightAware ADS-B
Thu 09:39:32 PM 38.9290 -77.1650 220° Southwest 358 412 34,000  Level FlightAware ADS-B
Thu 09:40:08 PM 38.8830 -77.2150 220° Southwest 359 413 34,000  Level FlightAware ADS-B
Thu 09:40:43 PM 38.8390 -77.2640 221° Southwest 359 413 34,000  Level FlightAware ADS-B
Thu 09:41:13 PM 38.8010 -77.3050 220° Southwest 360 414 34,000  Level FlightAware ADS-B
Thu 09:41:53 PM 38.7500 -77.3610 221° Southwest 363 418 34,000  Level FlightAware ADS-B
Thu 09:42:33 PM 38.6990 -77.4160 220° Southwest 365 420 34,000  Level FlightAware ADS-B
Thu 09:43:12 PM 38.6480 -77.4720 221° Southwest 365 420 34,000  Level FlightAware ADS-B
Thu 09:43:43 PM 38.6090 -77.5140 220° Southwest 364 419 34,000  Level FlightAware ADS-B
Thu 09:44:20 PM 38.5640 -77.5630 220° Southwest 364 419 34,000  Level FlightAware ADS-B
Thu 09:44:53 PM 38.5190 -77.6120 220° Southwest 364 419 34,000  Level FlightAware ADS-B
Thu 09:45:32 PM 38.4670 -77.6680 220° Southwest 364 419 34,000  Level FlightAware ADS-B
Thu 09:46:04 PM 38.4280 -77.7100 220° Southwest 362 417 34,000  Level FlightAware ADS-B
Thu 09:46:40 PM 38.3810 -77.7610 220° Southwest 361 415 34,000  Level FlightAware ADS-B
Thu 09:47:12 PM 38.3400 -77.8040 219° Southwest 361 415 34,000  Level FlightAware ADS-B
Thu 09:47:48 PM 38.2930 -77.8550 220° Southwest 361 415 34,000  Level FlightAware ADS-B
Thu 09:48:26 PM 38.2490 -77.9100 224° Southwest 354 407 34,000  Level FlightAware ADS-B
Thu 09:48:58 PM 38.2180 -77.9620 233° Southwest 355 409 34,000  Level FlightAware ADS-B
Thu 09:49:36 PM 38.1790 -78.0260 232° Southwest 356 410 34,000  Level FlightAware ADS-B
Thu 09:50:12 PM 38.1420 -78.0850 231° Southwest 357 411 34,000  Level FlightAware ADS-B
Thu 09:50:44 PM 38.1100 -78.1380 233° Southwest 359 413 34,000  Level FlightAware ADS-B
Thu 09:51:18 PM 38.0740 -78.1950 231° Southwest 359 413 34,000  Level FlightAware ADS-B
Thu 09:51:52 PM 38.0400 -78.2510 232° Southwest 358 412 34,000  Level FlightAware ADS-B
Thu 09:52:27 PM 38.0050 -78.3070 232° Southwest 360 414 34,000  Level FlightAware ADS-B
Thu 09:53:06 PM 37.9640 -78.3720 231° Southwest 359 413 34,000  Level FlightAware ADS-B
Thu 09:53:38 PM 37.9320 -78.4250 233° Southwest 358 412 34,000  Level FlightAware ADS-B
Thu 09:54:14 PM 37.8940 -78.4840 231° Southwest 357 411 34,000  Level FlightAware ADS-B
Thu 09:54:50 PM 37.8570 -78.5430 232° Southwest 358 412 34,000 343 Level FlightAware ADS-B
Thu 09:55:24 PM 37.8220 -78.5990 232° Southwest 359 413 34,400 676 Climbing FlightAware ADS-B
Thu 09:56:01 PM 37.7860 -78.6570 232° Southwest 358 412 34,800 750 Climbing FlightAware ADS-B
Thu 09:56:36 PM 37.7480 -78.7170 231° Southwest 355 409 35,300 845 Climbing FlightAware ADS-B
Thu 09:57:12 PM 37.7110 -78.7750 231° Southwest 353 406 35,800 600 Climbing FlightAware ADS-B
Thu 09:57:46 PM 37.6760 -78.8310 232° Southwest 356 410 36,000 171 Climbing FlightAware ADS-B
Thu 09:58:22 PM 37.6400 -78.8880 231° Southwest 356 410 36,000  Level FlightAware ADS-B
Thu 09:58:54 PM 37.6070 -78.9410 232° Southwest 354 407 36,000  Level FlightAware ADS-B
Thu 09:59:30 PM 37.5700 -78.9990 231° Southwest 355 409 36,000  Level FlightAware ADS-B
Thu 10:00:06 PM 37.5320 -79.0580 231° Southwest 357 411 36,000  Level FlightAware ADS-B
Thu 10:00:42 PM 37.4960 -79.1150 231° Southwest 356 410 36,000  Level FlightAware ADS-B
Thu 10:01:12 PM 37.4650 -79.1640 231° Southwest 355 409 36,000  Level FlightAware ADS-B
Thu 10:01:50 PM 37.4250 -79.2250 230° Southwest 354 407 36,000  Level FlightAware ADS-B
Thu 10:02:26 PM 37.3880 -79.2830 231° Southwest 354 407 36,000  Level FlightAware ADS-B
Thu 10:02:59 PM 37.3550 -79.3340 231° Southwest 354 407 36,000  Level FlightAware ADS-B
Thu 10:03:36 PM 37.3170 -79.3940 231° Southwest 354 407 36,000  Level FlightAware ADS-B
Thu 10:04:13 PM 37.2790 -79.4530 231° Southwest 357 411 36,000  Level FlightAware ADS-B
Thu 10:04:45 PM 37.2460 -79.5050 231° Southwest 357 411 36,000  Level FlightAware ADS-B
Thu 10:05:20 PM 37.2080 -79.5620 230° Southwest 359 413 36,000  Level FlightAware ADS-B
Thu 10:05:57 PM 37.1700 -79.6210 231° Southwest 360 414 36,000  Level FlightAware ADS-B
Thu 10:06:27 PM 37.1380 -79.6710 231° Southwest 359 413 36,000  Level FlightAware ADS-B
Thu 10:07:06 PM 37.0980 -79.7320 231° Southwest 360 414 36,000  Level FlightAware ADS-B
Thu 10:07:40 PM 37.0620 -79.7890 232° Southwest 361 415 36,000  Level FlightAware ADS-B
Thu 10:08:15 PM 37.0250 -79.8450 230° Southwest 362 417 36,000  Level FlightAware ADS-B
Thu 10:08:43 PM 36.9950 -79.8900 230° Southwest 363 418 36,000  Level FlightAware ADS-B
Thu 10:09:20 PM 36.9560 -79.9510 231° Southwest 364 419 36,000  Level FlightAware ADS-B
Thu 10:09:55 PM 36.9190 -80.0070 230° Southwest 363 418 36,000  Level FlightAware ADS-B
Thu 10:10:29 PM 36.8820 -80.0630 230° Southwest 363 418 36,000  Level FlightAware ADS-B
Thu 10:10:59 PM 36.8500 -80.1120 231° Southwest 364 419 36,000  Level FlightAware ADS-B
Thu 10:11:39 PM 36.8080 -80.1750 230° Southwest 365 420 36,000  Level FlightAware ADS-B
Thu 10:12:18 PM 36.7660 -80.2400 231° Southwest 365 420 36,000  Level FlightAware ADS-B
Thu 10:12:50 PM 36.7310 -80.2920 230° Southwest 365 420 36,000  Level FlightAware ADS-B
Thu 10:13:27 PM 36.6920 -80.3520 231° Southwest 365 420 36,000  Level FlightAware ADS-B
Thu 10:14:00 PM 36.6570 -80.4050 231° Southwest 365 420 36,000  Level FlightAware ADS-B
Thu 10:14:36 PM 36.6170 -80.4640 230° Southwest 365 420 36,000  Level FlightAware ADS-B
Thu 10:15:12 PM 36.5790 -80.5220 231° Southwest 364 419 36,000  Level FlightAware ADS-B
Thu 10:15:48 PM 36.5400 -80.5800 230° Southwest 362 417 36,000  Level FlightAware ADS-B
Thu 10:16:19 PM 36.5070 -80.6290 230° Southwest 362 417 36,000  Level FlightAware ADS-B
Thu 10:16:57 PM 36.4660 -80.6910 231° Southwest 362 417 36,000  Level FlightAware ADS-B
Thu 10:17:32 PM 36.4290 -80.7460 230° Southwest 362 417 36,000  Level FlightAware ADS-B
Thu 10:17:58 PM 36.4008 -80.7883 230° Southwest 362 417 36,000  Level FlightAware ADS-B
Thu 10:18:35 PM 36.3614 -80.8471 230° Southwest 362 417 36,000  Level FlightAware ADS-B
Thu 10:19:16 PM 36.3130 -80.9090 226° Southwest 370 426 36,000  Level FlightAware ADS-B
Thu 10:19:37 PM 36.2858 -80.9373 220° Southwest 372 428 36,000  Level FlightAware ADS-B
Thu 10:20:25 PM 36.2230 -81.0050 221° Southwest 373 429 36,000  Level FlightAware ADS-B
Thu 10:21:00 PM 36.1770 -81.0540 221° Southwest 374 430 36,000  Level FlightAware ADS-B
Thu 10:21:37 PM 36.1300 -81.1060 222° Southwest 373 429 36,000  Level FlightAware ADS-B
Thu 10:22:07 PM 36.0920 -81.1490 222° Southwest 373 429 36,000  Level FlightAware ADS-B
Thu 10:22:37 PM 36.0531 -81.1921 222° Southwest 371 427 36,000  Level FlightAware ADS-B
Thu 10:23:15 PM 36.0048 -81.2464 222° Southwest 371 427 36,000  Level FlightAware ADS-B
Thu 10:23:45 PM 35.9669 -81.2893 222° Southwest 370 426 36,000  Level FlightAware ADS-B
Thu 10:24:15 PM 35.9291 -81.3324 223° Southwest 371 427 36,000  Level FlightAware ADS-B
Thu 10:24:45 PM 35.8912 -81.3758 223° Southwest 371 427 36,000  Level FlightAware ADS-B
Thu 10:25:16 PM 35.8532 -81.4195 223° Southwest 372 428 36,000  Level FlightAware ADS-B
Thu 10:25:46 PM 35.8154 -81.4632 223° Southwest 373 429 36,000  Level FlightAware ADS-B
Thu 10:26:18 PM 35.7744 -81.5106 223° Southwest 372 428 36,000  Level FlightAware ADS-B
Thu 10:26:50 PM 35.7351 -81.5563 223° Southwest 371 427 36,000  Level FlightAware ADS-B
Thu 10:27:23 PM 35.6933 -81.6050 223° Southwest 371 427 36,000  Level FlightAware ADS-B
Thu 10:27:54 PM 35.6550 -81.6492 223° Southwest 371 427 36,000  Level FlightAware ADS-B
Thu 10:28:24 PM 35.6169 -81.6932 223° Southwest 372 428 36,000  Level FlightAware ADS-B
Thu 10:28:40 PM 35.5979 -81.7174 226° Southwest 369 425 36,000  Level FlightAware ADS-B
Thu 10:29:11 PM 35.5651 -81.7669 231° Southwest 368 423 36,000  Level FlightAware ADS-B
Thu 10:29:41 PM 35.5327 -81.8156 231° Southwest 368 423 36,000  Level FlightAware ADS-B
Thu 10:30:13 PM 35.4985 -81.8667 231° Southwest 369 425 36,000  Level FlightAware ADS-B
Thu 10:30:43 PM 35.4657 -81.9157 231° Southwest 369 425 36,000  Level FlightAware ADS-B
Thu 10:31:13 PM 35.4332 -81.9641 231° Southwest 369 425 36,000  Level FlightAware ADS-B
Thu 10:31:44 PM 35.4004 -82.0129 231° Southwest 369 425 36,000  Level FlightAware ADS-B
Thu 10:32:14 PM 35.3677 -82.0616 231° Southwest 367 422 36,000  Level FlightAware ADS-B
Thu 10:32:44 PM 35.3349 -82.1104 231° Southwest 367 422 36,000  Level FlightAware ADS-B
Thu 10:33:14 PM 35.3024 -82.1583 230° Southwest 367 422 36,000  Level FlightAware ADS-B
Thu 10:33:47 PM 35.2676 -82.2098 230° Southwest 368 423 36,000  Level FlightAware ADS-B
Thu 10:34:26 PM 35.2249 -82.2729 230° Southwest 369 425 36,000  Level FlightAware ADS-B
Thu 10:34:59 PM 35.1893 -82.3253 230° Southwest 371 427 36,000  Level FlightAware ADS-B
Thu 10:35:29 PM 35.1563 -82.3739 230° Southwest 371 427 36,000  Level FlightAware ADS-B
Thu 10:35:59 PM 35.1228 -82.4232 230° Southwest 372 428 36,000  Level FlightAware ADS-B
Thu 10:36:30 PM 35.0893 -82.4724 230° Southwest 373 429 36,000  Level FlightAware ADS-B
Thu 10:37:02 PM 35.0537 -82.5246 230° Southwest 374 430 36,000  Level FlightAware ADS-B
Thu 10:37:32 PM 35.0203 -82.5735 230° Southwest 373 429 36,000  Level FlightAware ADS-B
Thu 10:38:03 PM 34.9866 -82.6229 230° Southwest 373 429 36,000  Level FlightAware ADS-B
Thu 10:38:33 PM 34.9531 -82.6717 230° Southwest 373 429 36,000  Level FlightAware ADS-B
Thu 10:39:04 PM 34.9191 -82.7213 230° Southwest 373 429 36,000  Level FlightAware ADS-B
Thu 10:39:35 PM 34.8852 -82.7704 230° Southwest 373 429 36,000  Level FlightAware ADS-B
Thu 10:40:05 PM 34.8517 -82.8190 230° Southwest 373 429 36,000  Level FlightAware ADS-B
Thu 10:40:36 PM 34.8168 -82.8696 230° Southwest 373 429 36,000  Level FlightAware ADS-B
Thu 10:41:07 PM 34.7831 -82.9185 230° Southwest 373 429 36,000  Level FlightAware ADS-B
Thu 10:41:37 PM 34.7498 -82.9669 230° Southwest 373 429 36,000  Level FlightAware ADS-B
Thu 10:42:07 PM 34.7164 -83.0152 230° Southwest 373 429 36,000  Level FlightAware ADS-B
Thu 10:42:37 PM 34.6828 -83.0635 230° Southwest 373 429 36,000  Level FlightAware ADS-B
Thu 10:43:13 PM 34.6435 -83.1202 230° Southwest 372 428 36,000  Level FlightAware ADS-B
Thu 10:43:43 PM 34.6101 -83.1682 230° Southwest 373 429 36,000  Level FlightAware ADS-B
Thu 10:44:13 PM 34.5764 -83.2168 230° Southwest 373 429 36,000  Level FlightAware ADS-B
Thu 10:44:43 PM 34.5430 -83.2648 230° Southwest 373 429 36,000  Level FlightAware ADS-B
Thu 10:45:13 PM 34.5095 -83.3127 230° Southwest 373 429 36,000  Level FlightAware ADS-B
Thu 10:45:48 PM 34.4713 -83.3675 230° Southwest 373 429 36,000  Level FlightAware ADS-B
Thu 10:46:20 PM 34.4355 -83.4186 230° Southwest 373 429 36,000  Level FlightAware ADS-B
Thu 10:46:50 PM 34.4017 -83.4667 230° Southwest 374 430 36,000  Level FlightAware ADS-B
Thu 10:47:20 PM 34.3680 -83.5147 230° Southwest 375 432 36,000  Level FlightAware ADS-B
Thu 10:47:51 PM 34.3339 -83.5632 230° Southwest 375 432 36,000  Level FlightAware ADS-B
Thu 10:48:21 PM 34.3001 -83.6114 230° Southwest 376 433 36,000  Level FlightAware ADS-B
Thu 10:48:51 PM 34.2659 -83.6599 230° Southwest 377 434 36,000  Level FlightAware ADS-B
Thu 10:49:21 PM 34.2315 -83.7084 229° Southwest 379 436 36,000  Level FlightAware ADS-B
Thu 10:49:52 PM 34.1969 -83.7573 229° Southwest 379 436 36,000  Level FlightAware ADS-B
Thu 10:50:22 PM 34.1628 -83.8056 230° Southwest 379 436 36,000  Level FlightAware ADS-B
Thu 10:50:52 PM 34.1279 -83.8548 229° Southwest 378 435 36,000  Level FlightAware ADS-B
Thu 10:51:23 PM 34.0928 -83.9043 229° Southwest 378 435 36,000  Level FlightAware ADS-B
Thu 10:51:54 PM 34.0580 -83.9533 229° Southwest 377 434 36,000  Level FlightAware ADS-B
Thu 10:52:24 PM 34.0239 -84.0013 229° Southwest 377 434 36,000  Level FlightAware ADS-B
Thu 10:52:56 PM 33.9880 -84.0518 229° Southwest 377 434 36,000  Level FlightAware ADS-B
Thu 10:53:28 PM 33.9516 -84.1026 229° Southwest 377 434 36,000  Level FlightAware ADS-B
Thu 10:53:59 PM 33.9166 -84.1516 229° Southwest 378 435 36,000  Level FlightAware ADS-B
Thu 10:54:29 PM 33.8815 -84.2007 229° Southwest 379 436 36,000  Level FlightAware ADS-B
Thu 10:55:01 PM 33.8453 -84.2511 229° Southwest 379 436 36,000  Level FlightAware ADS-B
Thu 10:55:31 PM 33.8108 -84.2992 229° Southwest 379 436 36,000  Level FlightAware ADS-B
Thu 10:56:02 PM 33.7755 -84.3483 229° Southwest 379 436 36,000  Level FlightAware ADS-B
Thu 10:56:33 PM 33.7403 -84.3971 229° Southwest 379 436 36,000  Level FlightAware ADS-B
Thu 10:57:03 PM 33.7056 -84.4453 229° Southwest 379 436 36,000  Level FlightAware ADS-B
Thu 10:57:37 PM 33.6672 -84.4987 229° Southwest 379 436 36,000  Level FlightAware ADS-B
Thu 10:58:10 PM 33.6284 -84.5525 229° Southwest 379 436 36,000  Level FlightAware ADS-B
Thu 10:58:48 PM 33.5849 -84.6127 229° Southwest 379 436 36,000  Level FlightAware ADS-B
Thu 10:59:20 PM 33.5486 -84.6627 229° Southwest 379 436 36,000  Level FlightAware ADS-B
Thu 10:59:50 PM 33.5140 -84.7102 229° Southwest 378 435 36,000  Level FlightAware ADS-B
Thu 11:00:22 PM 33.4776 -84.7603 229° Southwest 376 433 36,000  Level FlightAware ADS-B
Thu 11:00:54 PM 33.4415 -84.8099 229° Southwest 375 432 36,000  Level FlightAware ADS-B
Thu 11:01:24 PM 33.4064 -84.8578 229° Southwest 373 429 36,000  Level FlightAware ADS-B
Thu 11:01:54 PM 33.3724 -84.9044 229° Southwest 373 429 36,000  Level FlightAware ADS-B
Thu 11:02:25 PM 33.3374 -84.9523 229° Southwest 373 429 36,000  Level FlightAware ADS-B
Thu 11:02:57 PM 33.3014 -85.0015 229° Southwest 372 428 36,000  Level FlightAware ADS-B
Thu 11:03:27 PM 33.2673 -85.0481 229° Southwest 374 430 36,000  Level FlightAware ADS-B
Thu 11:03:59 PM 33.2312 -85.0973 229° Southwest 374 430 36,000  Level FlightAware ADS-B
Thu 11:04:32 PM 33.1960 -85.1460 229° Southwest 375 432 36,000  Level FlightAware ADS-B
Thu 11:05:08 PM 33.1540 -85.2030 229° Southwest 376 433 36,000  Level FlightAware ADS-B
Thu 11:05:20 PM 33.1388 -85.2229 228° Southwest 375 432 36,000  Level FlightAware ADS-B
Thu 11:05:50 PM 33.1035 -85.2707 229° Southwest 376 433 36,000  Level FlightAware ADS-B
Thu 11:06:25 PM 33.0650 -85.3230 229° Southwest 376 433 36,000  Level FlightAware ADS-B
Thu 11:07:00 PM 33.0260 -85.3750 228° Southwest 376 433 36,000  Level FlightAware ADS-B
Thu 11:07:48 PM 32.9710 -85.4500 229° Southwest 377 434 36,000  Level FlightAware ADS-B
Thu 11:08:24 PM 32.9280 -85.5080 229° Southwest 376 433 36,000  Level FlightAware ADS-B
Thu 11:08:58 PM 32.8920 -85.5570 229° Southwest 377 434 36,000  Level FlightAware ADS-B
Thu 11:09:33 PM 32.8510 -85.6120 228° Southwest 377 434 36,000  Level FlightAware ADS-B
Thu 11:10:13 PM 32.8040 -85.6750 228° Southwest 378 435 36,000  Level FlightAware ADS-B
Thu 11:10:49 PM 32.7630 -85.7300 228° Southwest 379 436 36,000  Level FlightAware ADS-B
Thu 11:11:27 PM 32.7280 -85.7770 228° Southwest 379 436 36,000  Level FlightAware ADS-B
Thu 11:12:03 PM 32.6930 -85.8250 229° Southwest 379 436 36,000  Level FlightAware ADS-B
Thu 11:12:39 PM 32.6570 -85.8730 228° Southwest 379 436 36,000  Level FlightAware ADS-B
Thu 11:13:17 PM 32.5890 -85.9620 228° Southwest 381 438 36,000  Level FlightAware ADS-B
Thu 11:13:49 PM 32.5500 -86.0130 228° Southwest 381 438 36,000  Level FlightAware ADS-B
Thu 11:14:33 PM 32.5020 -86.0770 228° Southwest 381 438 36,000  Level FlightAware ADS-B
Thu 11:15:11 PM 32.4520 -86.1430 228° Southwest 383 441 36,000  Level FlightAware ADS-B
Thu 11:15:43 PM 32.4140 -86.1930 228° Southwest 383 441 36,000  Level FlightAware ADS-B
Thu 11:16:19 PM 32.3730 -86.2480 229° Southwest 384 442 36,000  Level FlightAware ADS-B
Thu 11:16:52 PM 32.3340 -86.2990 228° Southwest 383 441 36,000  Level FlightAware ADS-B
Thu 11:17:29 PM 32.2900 -86.3560 228° Southwest 384 442 36,000  Level FlightAware ADS-B
Thu 11:18:05 PM 32.2470 -86.4140 229° Southwest 385 443 36,000  Level FlightAware ADS-B
Thu 11:18:41 PM 32.2040 -86.4700 228° Southwest 385 443 36,000  Level FlightAware ADS-B
Thu 11:19:17 PM 32.1610 -86.5260 228° Southwest 386 444 36,000  Level FlightAware ADS-B
Thu 11:19:49 PM 32.1240 -86.5740 228° Southwest 387 445 36,000  Level FlightAware ADS-B
Thu 11:20:27 PM 32.0770 -86.6360 228° Southwest 386 444 36,000  Level FlightAware ADS-B
Thu 11:20:57 PM 32.0410 -86.6830 228° Southwest 385 443 36,000  Level FlightAware ADS-B
Thu 11:21:35 PM 31.9950 -86.7430 228° Southwest 385 443 36,000  Level FlightAware ADS-B
Thu 11:22:11 PM 31.9530 -86.7980 228° Southwest 386 444 36,000  Level FlightAware ADS-B
Thu 11:22:43 PM 31.9140 -86.8480 227° Southwest 387 445 36,000  Level FlightAware ADS-B
Thu 11:23:19 PM 31.8700 -86.9050 228° Southwest 388 447 36,000  Level FlightAware ADS-B
Thu 11:23:57 PM 31.8250 -86.9640 228° Southwest 388 447 36,000  Level FlightAware ADS-B
Thu 11:24:29 PM 31.7860 -87.0140 227° Southwest 387 445 36,000  Level FlightAware ADS-B
Thu 11:25:06 PM 31.7430 -87.0700 228° Southwest 387 445 36,000  Level FlightAware ADS-B
Thu 11:25:41 PM 31.6990 -87.1260 227° Southwest 387 445 36,000  Level FlightAware ADS-B
Thu 11:26:13 PM 31.6610 -87.1750 228° Southwest 387 445 36,000  Level FlightAware ADS-B
Thu 11:26:49 PM 31.6170 -87.2310 227° Southwest 387 445 36,000  Level FlightAware ADS-B
Thu 11:27:25 PM 31.5740 -87.2870 228° Southwest 388 447 36,000  Level FlightAware ADS-B
Thu 11:28:01 PM 31.5300 -87.3430 227° Southwest 388 447 36,000  Level FlightAware ADS-B
Thu 11:28:35 PM 31.4880 -87.3970 228° Southwest 389 448 36,000  Level FlightAware ADS-B
Thu 11:29:10 PM 31.4460 -87.4500 227° Southwest 390 449 36,000  Level FlightAware ADS-B
Thu 11:29:46 PM 31.4020 -87.5060 227° Southwest 390 449 36,000  Level FlightAware ADS-B
Thu 11:30:20 PM 31.3600 -87.5600 228° Southwest 390 449 36,000  Level FlightAware ADS-B
Thu 11:30:56 PM 31.3180 -87.6140 228° Southwest 390 449 36,000  Level FlightAware ADS-B
Thu 11:31:08 PM 31.3040 -87.6360 233° Southwest 388 447 36,000  Level FlightAware ADS-B
Thu 11:31:24 PM 31.2920 -87.6650 244° Southwest 388 447 36,000  Level FlightAware ADS-B
Thu 11:31:44 PM 31.2850 -87.7060 259° West 389 448 36,000  Level FlightAware ADS-B
Thu 11:32:21 PM 31.2750 -87.7830 261° West 387 445 36,000  Level FlightAware ADS-B
Thu 11:32:52 PM 31.2650 -87.8460 259° West 385 443 36,000  Level FlightAware ADS-B
Thu 11:33:28 PM 31.2550 -87.9200 261° West 385 443 36,000  Level FlightAware ADS-B
Thu 11:34:04 PM 31.2440 -87.9950 260° West 385 443 36,000  Level FlightAware ADS-B
Thu 11:34:36 PM 31.2340 -88.0610 260° West 385 443 36,000  Level FlightAware ADS-B
Thu 11:35:14 PM 31.2230 -88.1390 261° West 386 444 36,000  Level FlightAware ADS-B
Thu 11:35:50 PM 31.2130 -88.2110 261° West 386 444 36,000  Level FlightAware ADS-B
Thu 11:36:26 PM 31.2020 -88.2860 260° West 386 444 36,000  Level FlightAware ADS-B
Thu 11:36:59 PM 31.1920 -88.3520 260° West 385 443 36,000  Level FlightAware ADS-B
Thu 11:37:36 PM 31.1810 -88.4300 261° West 384 442 36,000  Level FlightAware ADS-B
Thu 11:38:05 PM 31.1720 -88.4870 260° West 384 442 36,000  Level FlightAware ADS-B
Thu 11:38:46 PM 31.1590 -88.5720 260° West 383 441 36,000  Level FlightAware ADS-B
Thu 11:39:18 PM 31.1500 -88.6360 261° West 383 441 36,000  Level FlightAware ADS-B
Thu 11:39:54 PM 31.1390 -88.7100 260° West 385 443 36,000  Level FlightAware ADS-B
Thu 11:40:28 PM 31.1280 -88.7790 259° West 385 443 36,000  Level FlightAware ADS-B
Thu 11:41:04 PM 31.1170 -88.8540 260° West 386 444 36,000  Level FlightAware ADS-B
Thu 11:41:40 PM 31.1060 -88.9240 260° West 386 444 36,000  Level FlightAware ADS-B
Thu 11:42:11 PM 31.0960 -88.9900 260° West 386 444 36,000  Level FlightAware ADS-B
Thu 11:42:44 PM 31.0860 -89.0560 260° West 384 442 36,000  Level FlightAware ADS-B
Thu 11:43:24 PM 31.0730 -89.1410 260° West 385 443 36,000  Level FlightAware ADS-B
Thu 11:43:56 PM 31.0630 -89.2040 260° West 384 442 36,000  Level FlightAware ADS-B
Thu 11:44:32 PM 31.0520 -89.2770 260° West 384 442 36,000  Level FlightAware ADS-B
Thu 11:45:08 PM 31.0400 -89.3520 259° West 385 443 36,000  Level FlightAware ADS-B
Thu 11:45:44 PM 31.0290 -89.4250 260° West 385 443 36,000  Level FlightAware ADS-B
Thu 11:46:16 PM 31.0190 -89.4890 260° West 385 443 36,000  Level FlightAware ADS-B
Thu 11:46:52 PM 31.0070 -89.5640 259° West 385 443 36,000  Level FlightAware ADS-B
Thu 11:47:28 PM 30.9950 -89.6380 259° West 385 443 36,000  Level FlightAware ADS-B
Thu 11:48:04 PM 30.9840 -89.7100 260° West 384 442 36,000  Level FlightAware ADS-B
Thu 11:48:37 PM 30.9730 -89.7760 259° West 384 442 36,000  Level FlightAware ADS-B
Thu 11:49:14 PM 30.9610 -89.8490 259° West 383 441 36,000  Level FlightAware ADS-B
Thu 11:49:47 PM 30.9500 -89.9200 260° West 383 441 36,000  Level FlightAware ADS-B
Thu 11:50:23 PM 30.9380 -89.9920 259° West 383 441 36,000  Level FlightAware ADS-B
Thu 11:51:15 PM 30.9230 -90.0870 260° West 383 441 36,000  Level FlightAware ADS-B
Thu 11:51:47 PM 30.9110 -90.1590 259° West 383 441 36,000  Level FlightAware ADS-B
Thu 11:52:22 PM 30.9010 -90.2210 259° West 383 441 36,000  Level FlightAware ADS-B
Thu 11:53:04 PM 30.8860 -90.3110 259° West 383 441 36,000  Level FlightAware ADS-B
Thu 11:53:39 PM 30.8750 -90.3830 260° West 383 441 36,000  Level FlightAware ADS-B
Thu 11:54:30 PM 30.8570 -90.4900 259° West 381 438 36,000  Level FlightAware ADS-B
Thu 11:55:01 PM 30.8470 -90.5520 259° West 382 440 36,000  Level FlightAware ADS-B
Thu 11:55:37 PM 30.8350 -90.6200 258° West 382 440 36,000  Level FlightAware ADS-B
Thu 11:56:08 PM 30.8280 -90.6630 259° West 381 438 36,000  Level FlightAware ADS-B
Thu 11:56:43 PM 30.8120 -90.7570 259° West 382 440 36,000  Level FlightAware ADS-B
Thu 11:57:22 PM 30.8010 -90.8260 260° West 305 351 36,000  Level FlightAware ADS-B
Thu 11:57:58 PM 30.7890 -90.8990 259° West 382 440 36,000  Level FlightAware ADS-B
Thu 11:58:34 PM 30.7790 -90.9590 259° West 382 440 36,000  Level FlightAware ADS-B
Thu 11:59:05 PM 30.7660 -91.0330 258° West 382 440 36,000  Level FlightAware ADS-B
Thu 11:59:43 PM 30.7520 -91.1130 259° West 381 438 36,000  Level FlightAware ADS-B
Fri 12:00:25 AM 30.7380 -91.1980 259° West 381 438 36,000  Level FlightAware ADS-B
Fri 12:00:57 AM 30.7260 -91.2690 259° West 381 438 36,000  Level FlightAware ADS-B
Fri 12:01:33 AM 30.7140 -91.3360 258° West 381 438 36,000  Level FlightAware ADS-B
Fri 12:02:08 AM 30.7030 -91.4020 259° West 381 438 36,000  Level FlightAware ADS-B
Fri 12:02:46 AM 30.6890 -91.4800 258° West 382 440 36,000  Level FlightAware ADS-B
Fri 12:03:42 AM 30.6710 -91.5850 259° West 383 441 36,000  Level FlightAware ADS-B
Fri 12:04:23 AM 30.6560 -91.6710 259° West 384 442 36,000  Level FlightAware ADS-B
Fri 12:04:59 AM 30.6410 -91.7540 258° West 384 442 36,000  Level FlightAware ADS-B
Fri 12:05:34 AM 30.6285 -91.8252 258° West 384 442 36,000  Level FlightAware ADS-B
Fri 12:06:04 AM 30.6177 -91.8856 258° West 383 441 36,000  Level FlightAware ADS-B
Fri 12:06:38 AM 30.6055 -91.9544 258° West 383 441 36,000  Level FlightAware ADS-B
Fri 12:07:39 AM 30.5837 -92.0769 258° West 383 441 36,000  Level FlightAware ADS-B
Fri 12:08:10 AM 30.5727 -92.1384 258° West 382 440 36,000  Level FlightAware ADS-B
Fri 12:08:46 AM 30.5595 -92.2120 258° West 382 440 36,000  Level FlightAware ADS-B
Fri 12:09:17 AM 30.5484 -92.2736 258° West 382 440 36,000  Level FlightAware ADS-B
Fri 12:09:47 AM 30.5375 -92.3339 258° West 381 438 36,000  Level FlightAware ADS-B
Fri 12:10:18 AM 30.5264 -92.3952 258° West 381 438 36,000  Level FlightAware ADS-B
Fri 12:10:48 AM 30.5156 -92.4553 258° West 381 438 36,000  Level FlightAware ADS-B
Fri 12:11:18 AM 30.5045 -92.5159 258° West 381 438 36,000  Level FlightAware ADS-B
Fri 12:11:49 AM 30.4935 -92.5759 258° West 381 438 36,000  Level FlightAware ADS-B
Fri 12:12:19 AM 30.4822 -92.6374 258° West 381 438 36,000  Level FlightAware ADS-B
Fri 12:12:51 AM 30.4708 -92.7000 258° West 382 440 36,000  Level FlightAware ADS-B
Fri 12:13:21 AM 30.4597 -92.7606 258° West 381 438 36,000  Level FlightAware ADS-B
Fri 12:13:52 AM 30.4484 -92.8220 258° West 381 438 36,000  Level FlightAware ADS-B
Fri 12:14:22 AM 30.4373 -92.8817 258° West 381 438 36,000  Level FlightAware ADS-B
Fri 12:14:54 AM 30.4254 -92.9455 258° West 381 438 36,000  Level FlightAware ADS-B
Fri 12:15:24 AM 30.4142 -93.0058 258° West 380 437 36,000  Level FlightAware ADS-B
Fri 12:15:55 AM 30.4029 -93.0658 258° West 380 437 36,000  Level FlightAware ADS-B
Fri 12:16:25 AM 30.3915 -93.1265 258° West 380 437 36,000  Level FlightAware ADS-B
Fri 12:16:56 AM 30.3800 -93.1878 258° West 380 437 36,000  Level FlightAware ADS-B
Fri 12:17:27 AM 30.3685 -93.2490 258° West 380 437 36,000  Level FlightAware ADS-B
Fri 12:17:57 AM 30.3571 -93.3091 258° West 381 438 36,000  Level FlightAware ADS-B
Fri 12:18:28 AM 30.3456 -93.3700 258° West 381 438 36,000  Level FlightAware ADS-B
Fri 12:18:58 AM 30.3343 -93.4296 258° West 380 437 36,000  Level FlightAware ADS-B
Fri 12:19:28 AM 30.3229 -93.4899 258° West 380 437 36,000  Level FlightAware ADS-B
Fri 12:19:59 AM 30.3114 -93.5499 257° West 379 436 36,000  Level FlightAware ADS-B
Fri 12:20:29 AM 30.3000 -93.6094 258° West 380 437 36,000  Level FlightAware ADS-B
Fri 12:20:59 AM 30.2886 -93.6690 258° West 380 437 36,000  Level FlightAware ADS-B
Fri 12:21:29 AM 30.2771 -93.7285 257° West 380 437 36,000  Level FlightAware ADS-B
Fri 12:22:00 AM 30.2655 -93.7887 257° West 380 437 36,000  Level FlightAware ADS-B
Fri 12:22:30 AM 30.2540 -93.8484 257° West 379 436 36,000  Level FlightAware ADS-B
Fri 12:22:57 AM 30.2436 -93.9021 257° West 378 435 36,000  Level FlightAware ADS-B
Fri 12:23:28 AM 30.2319 -93.9623 257° West 377 434 36,000  Level FlightAware ADS-B
Fri 12:23:58 AM 30.2202 -94.0220 257° West 377 434 36,000  Level FlightAware ADS-B
Fri 12:24:28 AM 30.2087 -94.0812 257° West 376 433 36,000  Level FlightAware ADS-B
Fri 12:24:58 AM 30.1971 -94.1403 257° West 376 433 36,000  Level FlightAware ADS-B
Fri 12:25:29 AM 30.1854 -94.1997 257° West 376 433 36,000  Level FlightAware ADS-B
Fri 12:25:59 AM 30.1739 -94.2585 257° West 376 433 36,000  Level FlightAware ADS-B
Fri 12:26:29 AM 30.1623 -94.3173 257° West 376 433 36,000  Level FlightAware ADS-B
Fri 12:26:59 AM 30.1506 -94.3769 257° West 376 433 36,000  Level FlightAware ADS-B
Fri 12:27:30 AM 30.1388 -94.4362 257° West 376 433 36,000  Level FlightAware ADS-B
Fri 12:28:00 AM 30.1269 -94.4956 257° West 376 433 36,000  Level FlightAware ADS-B
Fri 12:28:24 AM 30.1166 -94.5477 257° West 377 434 36,000  Level FlightAware ADS-B
Fri 12:28:31 AM 30.1149 -94.5558 257° West 376 433 36,000  Level FlightAware ADS-B
Fri 12:29:00 AM 30.1038 -94.6116 257° West 377 434 36,000  Level FlightAware ADS-B
Fri 12:29:30 AM 30.0920 -94.6707 257° West 377 434 36,000  Level FlightAware ADS-B
Fri 12:29:57 AM 30.0805 -94.7283 257° West 379 436 36,000  Level FlightAware ADS-B
Fri 12:30:01 AM 30.0798 -94.7315 256° West 379 436 36,000  Level FlightAware ADS-B
Fri 12:30:31 AM 30.0676 -94.7917 257° West 380 437 36,000  Level FlightAware ADS-B
Fri 12:30:36 AM 30.0661 -94.7996 257° West 380 437 36,000  Level FlightAware ADS-B
Fri 12:31:01 AM 30.0555 -94.8512 257° West 380 437 36,000  Level FlightAware ADS-B
Fri 12:31:07 AM 30.0524 -94.8670 257° West 380 437 36,000  Level FlightAware ADS-B
Fri 12:31:32 AM 30.0435 -94.9109 257° West 381 438 36,000  Level FlightAware ADS-B
Fri 12:31:37 AM 30.0410 -94.9235 257° West 381 438 36,000  Level FlightAware ADS-B
Fri 12:32:02 AM 30.0313 -94.9714 257° West 381 438 36,000  Level FlightAware ADS-B
Fri 12:32:17 AM 30.0247 -95.0042 257° West 380 437 36,000  Level FlightAware ADS-B
Fri 12:32:33 AM 30.0191 -95.0315 257° West 380 437 36,000  Level FlightAware ADS-B
Fri 12:32:47 AM 30.0127 -95.0628 257° West 379 436 36,000  Level FlightAware ADS-B
Fri 12:33:03 AM 30.0070 -95.0906 257° West 379 436 36,000  Level FlightAware ADS-B
Fri 12:33:17 AM 30.0006 -95.1220 257° West 379 436 36,000  Level FlightAware ADS-B
Fri 12:33:33 AM 29.9949 -95.1500 257° West 379 436 36,000  Level FlightAware ADS-B
Fri 12:33:48 AM 29.9879 -95.1843 257° West 379 436 36,000  Level FlightAware ADS-B
Fri 12:34:04 AM 29.9825 -95.2106 257° West 379 436 36,000  Level FlightAware ADS-B
Fri 12:34:34 AM 29.9702 -95.2703 257° West 380 437 36,000  Level FlightAware ADS-B
Fri 12:35:05 AM 29.9579 -95.3299 257° West 380 437 36,000  Level FlightAware ADS-B
Fri 12:35:35 AM 29.9457 -95.3894 257° West 381 438 36,000  Level FlightAware ADS-B
Fri 12:36:05 AM 29.9334 -95.4486 257° West 380 437 36,000  Level FlightAware ADS-B
Fri 12:36:35 AM 29.9212 -95.5076 257° West 382 440 36,000  Level FlightAware ADS-B
Fri 12:36:55 AM 29.9119 -95.5520 256° West 382 440 36,000  Level FlightAware ADS-B
Fri 12:37:05 AM 29.9088 -95.5672 257° West 382 440 36,000 -450 Level FlightAware ADS-B
Fri 12:37:35 AM 29.8964 -95.6266 256° West 380 437 35,700 -800 Descending FlightAware ADS-B
Fri 12:38:05 AM 29.8840 -95.6860 256° West 384 442 35,200 -1,180 Descending FlightAware ADS-B
Fri 12:38:36 AM 29.8709 -95.7483 256° West 391 450 34,500 -1,770 Descending FlightAware ADS-B
Fri 12:39:06 AM 29.8586 -95.8077 257° West 390 449 33,400 -2,053 Descending FlightAware ADS-B
Fri 12:39:14 AM 29.8565 -95.8244 262° West 391 450 33,200 -1,125 Descending FlightAware ADS-B
Fri 12:39:38 AM 29.8599 -95.8746 274° West 407 468 32,800 -1,333 Descending FlightAware ADS-B
Fri 12:40:08 AM 29.8725 -95.9391 283° West 411 473 32,000 -2,308 Descending FlightAware ADS-B
Fri 12:40:43 AM 29.8870 -96.0145 283° West 414 476 30,300 -2,727 Descending FlightAware ADS-B
Fri 12:41:14 AM 29.8994 -96.0794 282° West 406 467 29,000 -2,516 Descending FlightAware ADS-B
Fri 12:41:45 AM 29.9119 -96.1447 282° West 401 461 27,700 -2,419 Descending FlightAware ADS-B
Fri 12:42:16 AM 29.9240 -96.2080 282° West 395 455 26,500 -2,262 Descending FlightAware ADS-B
Fri 12:42:46 AM 29.9357 -96.2698 282° West 387 445 25,400 -2,200 Descending FlightAware ADS-B
Fri 12:43:16 AM 29.9473 -96.3304 282° West 379 436 24,300 -2,164 Descending FlightAware ADS-B
Fri 12:43:47 AM 29.9586 -96.3900 282° West 371 427 23,200 -2,164 Descending FlightAware ADS-B
Fri 12:44:17 AM 29.9695 -96.4478 282° West 364 419 22,100 -2,164 Descending FlightAware ADS-B
Fri 12:44:48 AM 29.9802 -96.5049 282° West 361 415 21,000 -2,164 Descending FlightAware ADS-B
Fri 12:45:18 AM 29.9909 -96.5622 282° West 356 410 19,900 -2,164 Descending FlightAware ADS-B
Fri 12:45:49 AM 30.0017 -96.6194 282° West 352 405 18,800 -2,043 Descending FlightAware ADS-B
Fri 12:46:05 AM 30.0066 -96.6457 282° West 349 402 18,300 -2,200 Descending FlightAware ADS-B
Fri 12:46:19 AM 30.0120 -96.6743 282° West 348 400 17,700 -2,267 Descending FlightAware ADS-B
Fri 12:46:50 AM 30.0221 -96.7285 282° West 345 397 16,600 -2,129 Descending FlightAware ADS-B
Fri 12:47:21 AM 30.0326 -96.7845 282° West 341 392 15,500 -2,160 Descending FlightAware ADS-B
Fri 12:47:40 AM 30.0385 -96.8156 282° West 340 391 14,800 -2,200 Descending FlightAware ADS-B
Fri 12:47:51 AM 30.0427 -96.8384 282° West 338 389 14,400 -2,143 Descending FlightAware ADS-B
Fri 12:48:22 AM 30.0526 -96.8917 282° West 334 384 13,300 -2,045 Descending FlightAware ADS-B
Fri 12:48:35 AM 30.0556 -96.9084 282° West 332 382 12,900 -2,200 Descending FlightAware ADS-B
Fri 12:48:52 AM 30.0623 -96.9447 282° West 329 379 12,200 -2,211 Descending FlightAware ADS-B
Fri 12:49:13 AM 30.0690 -96.9800 282° West 325 374 11,500 -1,935 Descending FlightAware ADS-B
Fri 12:49:23 AM 30.0721 -96.9969 282° West 324 373 11,200 -1,355 Descending FlightAware ADS-B
Fri 12:49:44 AM 30.0775 -97.0267 282° West 308 354 10,800 -933 Descending FlightAware ADS-B
Fri 12:50:08 AM 30.0857 -97.0688 283° West 303 349 10,500 -828 Descending FlightAware ADS-B
Fri 12:50:13 AM 30.0877 -97.0754 289° West 289 333 10,400 -857 Descending FlightAware ADS-B
Fri 12:50:15 AM 30.0875 -97.0748 114° Southeast 290 334 10,400 -429 Level FlightAware ADS-B
Fri 12:50:27 AM 30.0950 -97.0941 294° West 280 322 10,300 -1,350 Descending FlightAware ADS-B
Fri 12:50:55 AM 30.1114 -97.1307 297° West 281 323 9,500 -1,742 Descending FlightAware ADS-B
Fri 12:50:58 AM 30.1139 -97.1362 298° West 280 322 9,400 -1,600 Descending FlightAware ADS-B
Fri 12:51:10 AM 30.1212 -97.1519 298° West 282 325 9,100 -1,778 Descending FlightAware ADS-B
Fri 12:51:25 AM 30.1307 -97.1718 299° West 286 329 8,600 -1,800 Descending FlightAware ADS-B
Fri 12:51:40 AM 30.1400 -97.1921 298° West 283 326 8,200 -1,538 Descending FlightAware ADS-B
Fri 12:52:04 AM 30.1516 -97.2182 297° West 279 321 7,600 -1,696 Descending FlightAware ADS-B
Fri 12:52:26 AM 30.1661 -97.2536 295° West 283 326 6,900 -1,688 Descending FlightAware ADS-B
Fri 12:52:36 AM 30.1722 -97.2680 296° West 284 327 6,700 -1,500 Descending FlightAware ADS-B
Fri 12:52:42 AM 30.1750 -97.2736 300° West 282 325 6,500 -1,500 Descending FlightAware ADS-B
Fri 12:52:48 AM 30.1802 -97.2829 303° West 281 323 6,400 -1,241 Descending FlightAware ADS-B
Fri 12:53:11 AM 30.1978 -97.3105 306° West 278 320 5,900 -1,440 Descending FlightAware ADS-B
Fri 12:53:13 AM 30.1997 -97.3134 306° West 278 320 5,800 -1,800 Descending FlightAware ADS-B
Fri 12:53:31 AM 30.2134 -97.3348 307° West 279 321 5,300 -1,636 Descending FlightAware ADS-B
Fri 12:53:35 AM 30.2161 -97.3393 305° West 277 319 5,200 -1,385 Descending FlightAware ADS-B
Fri 12:53:44 AM 30.2229 -97.3503 306° West 269 310 5,000 -900 Descending FlightAware ADS-B
Fri 12:53:55 AM 30.2271 -97.3573 305° West 257 296 4,900 -800 Descending FlightAware ADS-B
Fri 12:53:59 AM 30.2336 -97.3679 305° West 254 292 4,800 -600 Descending FlightAware ADS-B
Fri 12:54:15 AM 30.2437 -97.3846 305° West 245 282 4,700 -649 Descending FlightAware ADS-B
Fri 12:54:36 AM 30.2572 -97.4069 305° West 239 275 4,400 -900 Descending FlightAware ADS-B
Fri 12:54:55 AM 30.2687 -97.4263 304° West 247 284 4,100 -923 Descending FlightAware ADS-B
Fri 12:55:15 AM 30.2818 -97.4486 304° West 240 276 3,800 -706 Descending FlightAware ADS-B
Fri 12:55:29 AM 30.2905 -97.4632 305° West 237 273 3,700 -571 Descending FlightAware ADS-B
Fri 12:55:36 AM 30.2947 -97.4700 305° West 230 265 3,600 -750 Descending FlightAware ADS-B
Fri 12:55:45 AM 30.3008 -97.4799 306° West 226 260 3,500 -600 Descending FlightAware ADS-B
Fri 12:55:56 AM 30.3065 -97.4901 303° West 221 254 3,400 -800 Descending FlightAware ADS-B
Fri 12:56:15 AM 30.3149 -97.5108 295° West 217 250 3,100 -857 Descending FlightAware ADS-B
Fri 12:56:17 AM 30.3156 -97.5131 289° West 217 250 3,100  Level FlightAware ADS-B
Fri 12:56:21 AM 30.3170 -97.5174 291° West 216 249 3,100 -462 Level FlightAware ADS-B
Fri 12:56:30 AM 30.3198 -97.5274 288° West 214 246 3,000 -800 Descending FlightAware ADS-B
Fri 12:56:36 AM 30.3209 -97.5323 284° West 213 245 2,900 -750 Descending FlightAware ADS-B
Fri 12:56:46 AM 30.3233 -97.5450 282° West 211 243 2,800 -600 Descending FlightAware ADS-B
Fri 12:56:56 AM 30.3246 -97.5535 280° West 208 239 2,700 -667 Descending FlightAware ADS-B
Fri 12:57:04 AM 30.3258 -97.5645 277° West 206 237 2,600 -600 Descending FlightAware ADS-B
Fri 12:57:16 AM 30.3262 -97.5764 272° West 204 235 2,500 -333 Descending FlightAware ADS-B
Fri 12:57:22 AM 30.3261 -97.5842 269° West 205 236 2,500 -316 Level FlightAware ADS-B
Fri 12:57:35 AM 30.3249 -97.5979 264° West 191 220 2,400  Descending FlightAware ADS-B
Fri 12:57:39 AM 30.3243 -97.6019 260° West 183 211 2,500 333 Climbing FlightAware ADS-B
Fri 12:57:53 AM 30.3216 -97.6138 255° West 162 186 2,500  Level FlightAware ADS-B
Fri 12:57:55 AM 30.3212 -97.6151 250° West 160 184 2,500 -400 Level FlightAware ADS-B
Fri 12:58:08 AM 30.3178 -97.6258 250° West 156 180 2,400 -286 Descending FlightAware ADS-B
Fri 12:58:16 AM 30.3160 -97.6313 249° West 155 178 2,400  Level FlightAware ADS-B
Fri 12:58:24 AM 30.3138 -97.6380 249° West 154 177 2,400  Level FlightAware ADS-B
Fri 12:58:32 AM 30.3115 -97.6442 247° West 154 177 2,400  Level FlightAware ADS-B
Fri 12:58:35 AM 30.3104 -97.6467 242° Southwest 153 176 2,400  Level FlightAware ADS-B
Fri 12:58:37 AM 30.3099 -97.6478 244° Southwest 153 176 2,400  Level FlightAware ADS-B
Fri 12:58:43 AM 30.3075 -97.6521 237° Southwest 154 177 2,400  Level FlightAware ADS-B
Fri 12:58:48 AM 30.3053 -97.6554 232° Southwest 151 174 2,400 -462 Level FlightAware ADS-B
Fri 12:58:56 AM 30.3022 -97.6585 221° Southwest 138 159 2,300 -667 Descending FlightAware ADS-B
Fri 12:59:06 AM 30.2958 -97.6609 197° South 133 153 2,200 -667 Descending FlightAware ADS-B
Fri 12:59:23 AM 30.2851 -97.6601 176° South 131 151 2,000 -600 Descending FlightAware ADS-B
Fri 12:59:26 AM 30.2835 -97.6600 177° South 132 152 2,000 -818 Level FlightAware ADS-B
Fri 12:59:45 AM 30.2717 -97.6597 179° South 130 150 1,700 -769 Descending FlightAware ADS-B
Fri 01:00:05 AM 30.2597 -97.6594 179° South 130 150 1,500 -585 Descending FlightAware ADS-B
Fri 01:00:26 AM 30.2471 -97.6591 179° South 131 151 1,300 -585 Descending FlightAware ADS-B
Fri 01:00:46 AM 30.2353 -97.6588 179° South 131 151 1,100 -615 Descending FlightAware ADS-B
Fri 01:01:05 AM 30.2246 -97.6585 178° South 132 152 900 -811 Descending FlightAware ADS-B
Fri 01:01:23 AM 30.2124 -97.6582 179° South 131 151 600 -340 Descending FlightAware ADS-B
Fri 01:01:58 AM 30.1940 -97.6570 177° South 131 151 600  Level FlightAware ADS-B
Fri 01:09:00 AM 30.1833 -97.6667 187° South  Level FlightAware Approximate
Fri 01:10:00 AM 30.1945 -97.6699 187° South  Level Estimated
Fri 01:11:00 AM 30.1945 -97.6699 187° South  Level Estimated
Fri 01:12:00 AM 30.1945 -97.6699 187° South  Level Estimated

Login

Don't have an account? Register now (free) for customized features, flight alerts, and more!